Flight Track Log - Related Links

Times and Time Zones

All times are in EDT time to prevent confusion due to time zone crossing. See the AFL150 flight status page for this flight to view local times or setup timezone preferences in your user account.

Time Position Orientation Groundspeed Altitude Reporting Facility
EDT Latitude Longitude Course Direction KTS MPH feet Rate Location/Type
Tue 12:48:38 PM 63.9600 -50.2680 250° West 489 563 34,000  Level FlightAware ADS-B
Tue 12:49:18 PM 63.9290 -50.4620 250° West 488 562 34,000  Level FlightAware ADS-B
Tue 12:50:04 PM 63.8940 -50.6810 250° West 488 562 34,000  Level FlightAware ADS-B
Tue 12:50:43 PM 63.8650 -50.8650 250° West 486 559 34,000  Level FlightAware ADS-B
Tue 12:51:31 PM 63.8270 -51.0960 250° West 485 558 34,000  Level FlightAware ADS-B
Tue 12:52:16 PM 63.7920 -51.3100 250° West 484 557 34,000  Level FlightAware ADS-B
Tue 12:52:56 PM 63.7610 -51.4990 250° West 486 559 34,000  Level FlightAware ADS-B
Tue 12:53:33 PM 63.7320 -51.6740 250° West 485 558 34,000  Level FlightAware ADS-B
Tue 12:54:13 PM 63.7000 -51.8630 249° West 484 557 34,000  Level FlightAware ADS-B
Tue 12:54:56 PM 63.6660 -52.0630 249° West 485 558 34,000  Level FlightAware ADS-B
Tue 12:55:32 PM 63.6360 -52.2350 249° West 484 557 34,000  Level FlightAware ADS-B
Tue 12:56:13 PM 63.6040 -52.4230 249° West 483 556 34,000  Level FlightAware ADS-B
Tue 12:56:54 PM 63.5710 -52.6100 248° West 481 554 34,000  Level FlightAware ADS-B
Tue 12:57:36 PM 63.5360 -52.8090 249° West 480 552 34,000  Level FlightAware ADS-B
Tue 12:58:16 PM 63.5020 -52.9940 248° West 478 550 34,000  Level FlightAware ADS-B
Tue 12:59:01 PM 63.4650 -53.1990 248° West 481 554 34,000  Level FlightAware ADS-B
Tue 12:59:41 PM 63.4320 -53.3800 248° West 483 556 34,000  Level FlightAware ADS-B
Tue 01:00:32 PM 63.3880 -53.6200 248° West 485 558 34,000  Level FlightAware ADS-B
Tue 01:01:14 PM 63.3520 -53.8140 248° West 487 560 34,000  Level FlightAware ADS-B
Tue 01:01:51 PM 63.3210 -53.9800 247° West 488 562 34,000  Level FlightAware ADS-B
Tue 01:02:46 PM 63.2770 -54.2090 247° West 487 560 34,000  Level FlightAware ADS-B
Tue 01:03:32 PM 63.2370 -54.4130 247° West 487 560 34,000  Level FlightAware ADS-B
Tue 01:04:08 PM 63.2090 -54.5520 246° West 487 560 34,000  Level FlightAware ADS-B
Tue 01:04:56 PM 63.1710 -54.7390 246° West 487 560 34,000  Level FlightAware ADS-B
Tue 01:05:31 PM 63.1440 -54.8740 246° West 487 560 34,000  Level FlightAware ADS-B
Tue 01:06:08 PM 63.1150 -55.0170 246° West 487 560 34,000  Level FlightAware ADS-B
Tue 01:06:57 PM 63.0770 -55.2070 246° West 487 560 34,000  Level FlightAware ADS-B
Tue 01:07:34 PM 63.0480 -55.3500 246° West 487 560 34,000  Level FlightAware ADS-B
Tue 01:08:10 PM 63.0200 -55.4890 246° West 487 560 34,000  Level FlightAware ADS-B
Tue 01:09:12 PM 62.9720 -55.7270 246° West 487 560 34,000  Level FlightAware ADS-B
Tue 01:09:48 PM 62.9440 -55.8660 246° West 487 560 34,000  Level FlightAware ADS-B
Tue 01:10:37 PM 62.9050 -56.0540 246° West 487 560 34,000  Level FlightAware ADS-B
Tue 01:11:12 PM 62.8780 -56.1890 246° West 487 560 34,000  Level FlightAware ADS-B
Tue 01:11:58 PM 62.8420 -56.3650 246° West 487 560 34,000  Level FlightAware ADS-B
Tue 01:12:44 PM 62.8060 -56.5410 246° West 487 560 34,000  Level FlightAware ADS-B
Tue 01:13:07 PM 62.6667 -56.8667 215° Southwest 240 276 34,000  Level Montreal Center
Tue 01:14:07 PM 62.6167 -57.1000 245° Southwest 450 518 34,000  Level Montreal Center
Tue 01:15:00 PM 62.5740 -56.9026 216° Southwest  Level Estimated
Tue 01:15:07 PM 62.5333 -57.3667 236° Southwest 480 552 34,000  Level Montreal Center
Tue 01:16:00 PM 62.4714 -57.0604 215° Southwest  Level Estimated
Tue 01:16:07 PM 62.4833 -57.6333 248° West 490 564 34,000  Level Montreal Center
Tue 01:17:00 PM 62.3685 -57.2170 215° Southwest  Level Estimated
Tue 01:17:07 PM 62.3500 -57.9333 226° Southwest 500 575 34,000  Level Montreal Center
Tue 01:18:00 PM 62.2656 -57.3726 215° Southwest  Level Estimated
Tue 01:18:07 PM 62.3333 -58.1167 259° West 470 541 34,000  Level Montreal Center
Tue 01:19:07 PM 62.2667 -58.3833 242° Southwest 480 552 34,000  Level Montreal Center
Tue 01:20:07 PM 62.1833 -58.6167 233° Southwest 490 564 34,000  Level Montreal Center
Tue 01:21:07 PM 62.1333 -58.8667 247° West 480 552 34,000  Level Montreal Center
Tue 01:22:07 PM 62.0667 -59.0833 237° Southwest 480 552 34,000  Level Montreal Center
Tue 01:23:07 PM 61.9833 -59.3500 236° Southwest 490 564 34,000  Level Montreal Center
Tue 01:24:07 PM 61.9167 -59.6000 241° Southwest 490 564 34,000  Level Montreal Center
Tue 01:25:07 PM 61.8667 -59.7833 240° Southwest 480 552 34,000  Level Montreal Center
Tue 01:26:07 PM 61.7833 -60.0333 235° Southwest 480 552 34,000  Level Montreal Center
Tue 01:27:07 PM 61.7167 -60.2500 237° Southwest 480 552 34,000  Level Montreal Center
Tue 01:28:07 PM 61.6333 -60.5000 235° Southwest 480 552 34,000  Level Montreal Center
Tue 01:29:07 PM 61.5833 -60.7500 247° West 480 552 34,000  Level Montreal Center
Tue 01:30:07 PM 61.5000 -60.9667 231° Southwest 480 552 34,000  Level Montreal Center
Tue 01:31:07 PM 61.4333 -61.2167 241° Southwest 480 552 34,000  Level Montreal Center
Tue 01:32:07 PM 61.3667 -61.4333 237° Southwest 470 541 34,000  Level Montreal Center
Tue 01:33:07 PM 61.2833 -61.6667 233° Southwest 470 541 34,000  Level Montreal Center
Tue 01:34:07 PM 61.2000 -61.8833 231° Southwest 470 541 34,000  Level Montreal Center
Tue 01:35:07 PM 61.1333 -62.1333 241° Southwest 470 541 34,000  Level Montreal Center
Tue 01:36:07 PM 61.0667 -62.3333 235° Southwest 470 541 34,000  Level Montreal Center
Tue 01:37:07 PM 60.9833 -62.5833 236° Southwest 470 541 34,000  Level Montreal Center
Tue 01:38:07 PM 60.9000 -62.8167 234° Southwest 470 541 34,000  Level Montreal Center
Tue 01:39:07 PM 60.8333 -63.0667 241° Southwest 470 541 34,000  Level Montreal Center
Tue 01:40:07 PM 60.7500 -63.2667 230° Southwest 480 552 34,000  Level Montreal Center
Tue 01:41:07 PM 60.6833 -63.5000 240° Southwest 480 552 34,000  Level Montreal Center
Tue 01:42:07 PM 60.6000 -63.7167 232° Southwest 470 541 34,000  Level Montreal Center
Tue 01:43:07 PM 60.5333 -63.9333 238° Southwest 470 541 34,000  Level Montreal Center
Tue 01:44:07 PM 60.4500 -64.1500 232° Southwest 470 541 34,000  Level Montreal Center
Tue 01:45:07 PM 60.3667 -64.3833 234° Southwest 470 541 34,000  Level Montreal Center
Tue 01:46:07 PM 60.2833 -64.5833 230° Southwest 470 541 34,000  Level Montreal Center
Tue 01:47:07 PM 60.2167 -64.8000 238° Southwest 470 541 34,000  Level Montreal Center
Tue 01:48:07 PM 60.1333 -65.0000 230° Southwest 470 541 34,000  Level Montreal Center
Tue 01:49:07 PM 60.0500 -65.2000 230° Southwest 470 541 34,000  Level Montreal Center
Tue 01:50:07 PM 59.9333 -65.3667 216° Southwest 480 552 34,000  Level Montreal Center
Tue 01:51:07 PM 59.8500 -65.5667 230° Southwest 490 564 34,000  Level Montreal Center
Tue 01:52:07 PM 59.7500 -65.7333 220° Southwest 490 564 34,000  Level Montreal Center
Tue 01:53:07 PM 59.6333 -65.9000 216° Southwest 490 564 34,000  Level Montreal Center
Tue 01:54:07 PM 59.5333 -66.1000 225° Southwest 480 552 34,000  Level Montreal Center
Tue 01:55:07 PM 59.4333 -66.2667 220° Southwest 480 552 34,000  Level Montreal Center
Tue 01:56:07 PM 59.3333 -66.4167 217° Southwest 480 552 34,000  Level Montreal Center
Tue 01:57:07 PM 59.2333 -66.6167 226° Southwest 480 552 34,000  Level Montreal Center
Tue 01:58:07 PM 59.1333 -66.7667 218° Southwest 480 552 34,000  Level Montreal Center
Tue 01:59:07 PM 59.0167 -66.9333 216° Southwest 480 552 34,000  Level Montreal Center
Tue 02:00:07 PM 58.9167 -67.1167 223° Southwest 480 552 34,000  Level Montreal Center
Tue 02:01:07 PM 58.8167 -67.2833 221° Southwest 480 552 34,000  Level Montreal Center
Tue 02:02:07 PM 58.7167 -67.4333 218° Southwest 470 541 34,000  Level Montreal Center
Tue 02:03:07 PM 58.6000 -67.5833 214° Southwest 470 541 34,000  Level Montreal Center
Tue 02:04:07 PM 58.5167 -67.7333 223° Southwest 470 541 34,000  Level Montreal Center
Tue 02:05:07 PM 58.4167 -67.9333 226° Southwest 470 541 34,000  Level Montreal Center
Tue 02:06:07 PM 58.3167 -68.0667 215° Southwest 460 529 34,000  Level Montreal Center
Tue 02:07:07 PM 58.2167 -68.2167 218° Southwest 460 529 34,000  Level Montreal Center
Tue 02:08:07 PM 58.1167 -68.4000 224° Southwest 450 518 34,000  Level Montreal Center
Tue 02:09:36 PM 57.9667 -68.6000 215° Southwest 460 529 34,000  Level Montreal Center
Tue 02:10:36 PM 57.8500 -68.7500 214° Southwest 460 529 34,000  Level Montreal Center
Tue 02:11:36 PM 57.7333 -68.9000 214° Southwest 460 529 34,000  Level Montreal Center
Tue 02:12:36 PM 57.6500 -69.0000 213° Southwest 460 529 34,000  Level Montreal Center
Tue 02:13:36 PM 57.5333 -69.1500 215° Southwest 460 529 34,000  Level Montreal Center
Tue 02:14:36 PM 57.4333 -69.3000 219° Southwest 460 529 34,000  Level Montreal Center
Tue 02:15:36 PM 57.3333 -69.4500 219° Southwest 460 529 34,000  Level Montreal Center
Tue 02:16:36 PM 57.2333 -69.5833 216° Southwest 460 529 34,000  Level Montreal Center
Tue 02:17:36 PM 57.1167 -69.7000 209° Southwest 460 529 34,000  Level Montreal Center
Tue 02:18:36 PM 57.0167 -69.8333 216° Southwest 460 529 34,000  Level Montreal Center
Tue 02:19:36 PM 56.9000 -69.9833 215° Southwest 460 529 34,000  Level Montreal Center
Tue 02:20:36 PM 56.8000 -70.1167 216° Southwest 460 529 34,000  Level Montreal Center
Tue 02:21:36 PM 56.7000 -70.2500 216° Southwest 460 529 34,000  Level Montreal Center
Tue 02:22:36 PM 56.6000 -70.4000 220° Southwest 460 529 34,000  Level Montreal Center
Tue 02:23:36 PM 56.4833 -70.5333 212° Southwest 460 529 34,000  Level Montreal Center
Tue 02:24:36 PM 56.3833 -70.6333 209° Southwest 460 529 34,000  Level Montreal Center
Tue 02:25:36 PM 56.2833 -70.7667 217° Southwest 460 529 34,000  Level Montreal Center
Tue 02:26:36 PM 56.1833 -70.9167 220° Southwest 450 518 34,000  Level Montreal Center
Tue 02:27:36 PM 56.0667 -71.0167 206° Southwest 450 518 34,000  Level Montreal Center
Tue 02:28:36 PM 55.9500 -71.1500 213° Southwest 450 518 34,000  Level Montreal Center
Tue 02:29:36 PM 55.8667 -71.2833 222° Southwest 450 518 34,000  Level Montreal Center
Tue 02:30:36 PM 55.7500 -71.4167 213° Southwest 460 529 34,000  Level Montreal Center
Tue 02:31:36 PM 55.6500 -71.5500 217° Southwest 450 518 34,000  Level Montreal Center
Tue 02:32:36 PM 55.5333 -71.6500 206° Southwest 450 518 34,000  Level Montreal Center
Tue 02:33:36 PM 55.4333 -71.7833 217° Southwest 450 518 34,000  Level Montreal Center
Tue 02:34:36 PM 55.3333 -71.9000 214° Southwest 450 518 34,000  Level Montreal Center
Tue 02:35:36 PM 55.2333 -72.0333 217° Southwest 450 518 34,000  Level Montreal Center
Tue 02:36:36 PM 55.1167 -72.1333 206° Southwest 450 518 34,000  Level Montreal Center
Tue 02:37:36 PM 55.0167 -72.2667 217° Southwest 450 518 34,000  Level Montreal Center
Tue 02:38:36 PM 54.9000 -72.3833 210° Southwest 450 518 34,000  Level Montreal Center
Tue 02:39:36 PM 54.7833 -72.5167 213° Southwest 450 518 34,000  Level Montreal Center
Tue 02:40:36 PM 54.6833 -72.6333 214° Southwest 450 518 34,000  Level Montreal Center
Tue 02:41:36 PM 54.5833 -72.7333 210° Southwest 450 518 34,000  Level Montreal Center
Tue 02:42:36 PM 54.4833 -72.8667 218° Southwest 450 518 34,000  Level Montreal Center
Tue 02:43:36 PM 54.3667 -72.9833 210° Southwest 450 518 34,000  Level Montreal Center
Tue 02:44:36 PM 54.2667 -73.1167 218° Southwest 450 518 34,000  Level Montreal Center
Tue 02:45:36 PM 54.1667 -73.2000 206° Southwest 450 518 34,000  Level Montreal Center
Tue 02:46:36 PM 54.0500 -73.3167 210° Southwest 460 529 34,000  Level Montreal Center
Tue 02:47:36 PM 53.9333 -73.4500 214° Southwest 460 529 34,000  Level Montreal Center
Tue 02:48:36 PM 53.8333 -73.5667 215° Southwest 460 529 34,000  Level Montreal Center
Tue 02:49:36 PM 53.7167 -73.6833 211° Southwest 460 529 34,000  Level Montreal Center
Tue 02:50:36 PM 53.6167 -73.7833 211° Southwest 460 529 34,000  Level Montreal Center
Tue 02:51:36 PM 53.4833 -73.8667 200° South 460 529 34,000  Level Montreal Center
Tue 02:52:36 PM 53.3667 -73.9833 211° Southwest 460 529 34,000  Level Montreal Center
Tue 02:53:36 PM 53.2500 -74.0833 207° Southwest 460 529 34,000  Level Montreal Center
Tue 02:54:36 PM 53.1500 -74.1667 207° Southwest 460 529 34,000  Level Montreal Center
Tue 02:55:36 PM 53.0333 -74.2500 203° Southwest 460 529 34,000  Level Montreal Center
Tue 02:56:36 PM 52.9167 -74.3500 207° Southwest 460 529 34,000  Level Montreal Center
Tue 02:57:36 PM 52.8167 -74.4667 215° Southwest 460 529 34,000  Level Montreal Center
Tue 02:58:36 PM 52.7000 -74.5500 203° Southwest 470 541 34,000 350 Level Montreal Center
Tue 02:59:36 PM 52.5500 -74.6333 199° South 470 541 34,700 750 Climbing Montreal Center
Tue 03:00:36 PM 52.4500 -74.7167 207° Southwest 470 541 35,500 650 Climbing Montreal Center
Tue 03:01:36 PM 52.3167 -74.8333 208° Southwest 470 541 36,000 250 Climbing Montreal Center
Tue 03:02:36 PM 52.2000 -74.9167 204° Southwest 490 564 36,000  Level Montreal Center
Tue 03:03:36 PM 52.0833 -75.0333 212° Southwest 480 552 36,000  Level Montreal Center
Tue 03:04:36 PM 51.9667 -75.1167 204° Southwest 470 541 36,000  Level Montreal Center
Tue 03:05:36 PM 51.8333 -75.2000 201° Southwest 480 552 36,000  Level Montreal Center
Tue 03:06:36 PM 51.7167 -75.3167 212° Southwest 480 552 36,000  Level Montreal Center
Tue 03:07:36 PM 51.6000 -75.4000 204° Southwest 470 541 36,000  Level Montreal Center
Tue 03:08:36 PM 51.4833 -75.4833 204° Southwest 480 552 36,000  Level Montreal Center
Tue 03:09:36 PM 51.3667 -75.5833 208° Southwest 480 552 36,000  Level Montreal Center
Tue 03:10:36 PM 51.2333 -75.6667 201° Southwest 480 552 36,000  Level Montreal Center
Tue 03:11:36 PM 51.1167 -75.7500 204° Southwest 480 552 36,000  Level Montreal Center
Tue 03:12:36 PM 51.0000 -75.8500 208° Southwest 490 564 36,000  Level Montreal Center
Tue 03:13:36 PM 50.8667 -75.9333 202° Southwest 490 564 36,000  Level Montreal Center
Tue 03:14:36 PM 50.7500 -76.0500 212° Southwest 490 564 36,000  Level Montreal Center
Tue 03:15:36 PM 50.6333 -76.1167 200° South 490 564 36,000  Level Montreal Center
Tue 03:16:36 PM 50.5000 -76.2333 209° Southwest 490 564 36,000  Level Montreal Center
Tue 03:17:36 PM 50.3833 -76.3167 204° Southwest 490 564 36,000  Level Montreal Center
Tue 03:18:36 PM 50.2500 -76.4167 206° Southwest 490 564 36,000  Level Montreal Center
Tue 03:19:36 PM 50.1333 -76.4833 200° South 490 564 36,000  Level Montreal Center
Tue 03:20:36 PM 49.9833 -76.6000 207° Southwest 490 564 36,000  Level Montreal Center
Tue 03:21:36 PM 49.8667 -76.6667 200° South 490 564 36,000  Level Montreal Center
Tue 03:22:36 PM 49.7500 -76.7500 205° Southwest 490 564 36,000  Level Montreal Center
Tue 03:23:36 PM 49.6167 -76.8500 206° Southwest 490 564 36,000  Level Montreal Center
Tue 03:24:36 PM 49.5000 -76.9167 200° South 480 552 36,000  Level Montreal Center
Tue 03:25:36 PM 49.3667 -77.0167 206° Southwest 510 587 36,000  Level Montreal Center
Tue 03:26:36 PM 49.2500 -77.1000 205° Southwest 480 552 36,000  Level Montreal Center
Tue 03:27:36 PM 49.1167 -77.2000 206° Southwest 490 564 36,000  Level Montreal Center
Tue 03:28:36 PM 49.0000 -77.2667 201° Southwest 500 575 36,000  Level Montreal Center
Tue 03:29:36 PM 48.8500 -77.3667 204° Southwest 490 564 36,000  Level Montreal Center
Tue 03:30:36 PM 48.7333 -77.4500 205° Southwest 490 564 36,000  Level Montreal Center
Tue 03:36:19 PM 48.0340 -77.9040 205° Southwest 497 572 36,000  Level FlightAware ADS-B
Tue 03:36:53 PM 47.9540 -77.9500 201° Southwest 496 571 36,000  Level FlightAware ADS-B
Tue 03:37:44 PM 47.8460 -78.0140 202° Southwest 497 572 36,000  Level FlightAware ADS-B
Tue 03:38:21 PM 47.7780 -78.0520 201° Southwest 497 572 36,000  Level FlightAware ADS-B
Tue 03:39:06 PM 47.6650 -78.1180 201° Southwest 499 574 36,000  Level FlightAware ADS-B
Tue 03:39:44 PM 47.5850 -78.1640 201° Southwest 498 573 36,000  Level FlightAware ADS-B
Tue 03:40:32 PM 47.4820 -78.2240 201° Southwest 496 571 36,000  Level FlightAware ADS-B
Tue 03:41:12 PM 47.3960 -78.2730 201° Southwest 497 572 36,000  Level FlightAware ADS-B
Tue 03:41:45 PM 47.3260 -78.3130 201° Southwest 498 573 36,000  Level FlightAware ADS-B
Tue 03:42:29 PM 47.2340 -78.3650 201° Southwest 497 572 36,000  Level FlightAware ADS-B
Tue 03:43:13 PM 47.1370 -78.4200 201° Southwest 498 573 36,000  Level FlightAware ADS-B
Tue 03:43:48 PM 47.0610 -78.4630 201° Southwest 497 572 36,000  Level FlightAware ADS-B
Tue 03:44:30 PM 46.9710 -78.5130 201° Southwest 496 571 36,000  Level FlightAware ADS-B
Tue 03:45:40 PM 46.8230 -78.5960 201° Southwest 495 570 36,000  Level FlightAware ADS-B
Tue 03:46:20 PM 46.7360 -78.6450 201° Southwest 496 571 36,000  Level FlightAware ADS-B
Tue 03:47:00 PM 46.6510 -78.6920 201° Southwest 496 571 36,000  Level FlightAware ADS-B
Tue 03:47:46 PM 46.5510 -78.7470 201° Southwest 498 573 36,000  Level FlightAware ADS-B
Tue 03:48:26 PM 46.4650 -78.7940 201° Southwest 500 575 36,000  Level FlightAware ADS-B
Tue 03:49:08 PM 46.3750 -78.8440 201° Southwest 501 577 36,000  Level FlightAware ADS-B
Tue 03:49:46 PM 46.2930 -78.8890 201° Southwest 502 578 36,000  Level FlightAware ADS-B
Tue 03:50:33 PM 46.1900 -78.9450 201° Southwest 501 577 36,000  Level FlightAware ADS-B
Tue 03:51:14 PM 46.1010 -78.9930 201° Southwest 501 577 36,000  Level FlightAware ADS-B
Tue 03:51:54 PM 46.0150 -79.0400 201° Southwest 500 575 36,000  Level FlightAware ADS-B
Tue 03:52:38 PM 45.9200 -79.0910 200° South 495 570 36,000  Level FlightAware ADS-B
Tue 03:53:16 PM 45.8380 -79.1350 200° South 490 564 36,000  Level FlightAware ADS-B
Tue 03:54:02 PM 45.7450 -79.1850 201° Southwest 477 549 36,000  Level FlightAware ADS-B
Tue 03:54:38 PM 45.6700 -79.2250 200° South 470 541 36,000  Level FlightAware ADS-B
Tue 03:55:27 PM 45.5700 -79.2780 200° South 472 543 36,000  Level FlightAware ADS-B
Tue 03:56:07 PM 45.4880 -79.3220 201° Southwest 479 551 36,000  Level FlightAware ADS-B
Tue 03:56:51 PM 45.3960 -79.3700 200° South 475 547 36,000  Level FlightAware ADS-B
Tue 03:57:32 PM 45.3110 -79.4150 200° South 471 542 36,000  Level FlightAware ADS-B
Tue 03:58:16 PM 45.2240 -79.4610 200° South 475 547 36,000  Level FlightAware ADS-B
Tue 03:58:54 PM 45.1530 -79.4980 200° South 477 549 36,000  Level FlightAware ADS-B
Tue 03:59:33 PM 45.0680 -79.5420 200° South 477 549 36,000  Level FlightAware ADS-B
Tue 04:00:18 PM 44.9730 -79.5920 200° South 477 549 36,000  Level FlightAware ADS-B
Tue 04:01:03 PM 44.8820 -79.6390 200° South 476 548 36,000  Level FlightAware ADS-B
Tue 04:01:43 PM 44.8000 -79.6820 200° South 477 549 36,000  Level FlightAware ADS-B
Tue 04:02:18 PM 44.7330 -79.7160 200° South 478 550 36,000  Level FlightAware ADS-B
Tue 04:02:58 PM 44.6500 -79.7590 200° South 480 552 36,000  Level FlightAware ADS-B
Tue 04:03:43 PM 44.5530 -79.8190 204° Southwest 479 551 36,000  Level FlightAware ADS-B
Tue 04:04:18 PM 44.4880 -79.8760 212° Southwest 478 550 36,000  Level FlightAware ADS-B
Tue 04:05:00 PM 44.4050 -79.9520 213° Southwest 476 548 36,000  Level FlightAware ADS-B
Tue 04:05:40 PM 44.3320 -80.0190 213° Southwest 473 544 36,000  Level FlightAware ADS-B
Tue 04:06:19 PM 44.2600 -80.0830 212° Southwest 472 543 36,000  Level FlightAware ADS-B
Tue 04:07:02 PM 44.1810 -80.1540 213° Southwest 473 544 36,000  Level FlightAware ADS-B
Tue 04:07:45 PM 44.1010 -80.2240 212° Southwest 477 549 36,000  Level FlightAware ADS-B
Tue 04:08:28 PM 44.0200 -80.2960 213° Southwest 481 554 36,000  Level FlightAware ADS-B
Tue 04:09:10 PM 43.9470 -80.3610 213° Southwest 481 554 36,000  Level FlightAware ADS-B
Tue 04:09:45 PM 43.8870 -80.4140 212° Southwest 480 552 36,000  Level FlightAware ADS-B
Tue 04:10:30 PM 43.7960 -80.4940 212° Southwest 476 548 36,000  Level FlightAware ADS-B
Tue 04:10:50 PM 43.7670 -80.5200 213° Southwest 476 548 36,000  Level FlightAware ADS-B
Tue 04:11:33 PM 43.6910 -80.5850 212° Southwest 476 548 36,000  Level FlightAware ADS-B
Tue 04:12:12 PM 43.6140 -80.6530 213° Southwest 478 550 36,000  Level FlightAware ADS-B
Tue 04:13:00 PM 43.5170 -80.7370 212° Southwest 478 550 36,000  Level FlightAware ADS-B
Tue 04:13:45 PM 43.4350 -80.8080 212° Southwest 479 551 36,000  Level FlightAware ADS-B
Tue 04:14:25 PM 43.3580 -80.8750 212° Southwest 484 557 36,000 632 Level FlightAware ADS-B
Tue 04:15:20 PM 43.2550 -80.9630 212° Southwest 483 556 37,000 1,200 Climbing FlightAware ADS-B
Tue 04:16:00 PM 43.1810 -81.0270 212° Southwest 478 550 37,900 706 Climbing FlightAware ADS-B
Tue 04:16:45 PM 43.0950 -81.1000 212° Southwest 487 560 38,000 71 Climbing FlightAware ADS-B
Tue 04:17:25 PM 43.0150 -81.1610 209° Southwest 490 564 38,000  Level FlightAware ADS-B
Tue 04:18:05 PM 42.9310 -81.2130 204° Southwest 487 560 38,000  Level FlightAware ADS-B
Tue 04:18:45 PM 42.8530 -81.2630 205° Southwest 488 562 38,000  Level FlightAware ADS-B
Tue 04:19:25 PM 42.7690 -81.3150 204° Southwest 488 562 38,000  Level FlightAware ADS-B
Tue 04:20:05 PM 42.6880 -81.3650 204° Southwest 489 563 38,000  Level FlightAware ADS-B
Tue 04:20:50 PM 42.5920 -81.4230 204° Southwest 492 566 38,000  Level FlightAware ADS-B
Tue 04:21:30 PM 42.5130 -81.4720 205° Southwest 494 568 38,000  Level FlightAware ADS-B
Tue 04:22:16 PM 42.4180 -81.5290 204° Southwest 493 567 38,000  Level FlightAware ADS-B
Tue 04:22:55 PM 42.3340 -81.5800 204° Southwest 491 565 38,000  Level FlightAware ADS-B
Tue 04:23:40 PM 42.2440 -81.6350 204° Southwest 490 564 38,000  Level FlightAware ADS-B
Tue 04:24:20 PM 42.1530 -81.6900 204° Southwest 491 565 38,000  Level FlightAware ADS-B
Tue 04:25:06 PM 42.0570 -81.7470 204° Southwest 491 565 38,000  Level FlightAware ADS-B
Tue 04:25:45 PM 41.9780 -81.7950 204° Southwest 491 565 38,000  Level FlightAware ADS-B
Tue 04:26:29 PM 41.8880 -81.8490 204° Southwest 490 564 38,000  Level FlightAware ADS-B
Tue 04:27:10 PM 41.8020 -81.9000 204° Southwest 489 563 38,000  Level FlightAware ADS-B
Tue 04:27:52 PM 41.7150 -81.9520 204° Southwest 491 565 38,000  Level FlightAware ADS-B
Tue 04:28:36 PM 41.6230 -82.0060 204° Southwest 494 568 38,000  Level FlightAware ADS-B
Tue 04:29:16 PM 41.5380 -82.0560 204° Southwest 496 571 38,000  Level FlightAware ADS-B
Tue 04:29:59 PM 41.4470 -82.1100 204° Southwest 497 572 38,000  Level FlightAware ADS-B
Tue 04:30:40 PM 41.3650 -82.1560 203° Southwest 497 572 38,000  Level FlightAware ADS-B
Tue 04:31:22 PM 41.2670 -82.1910 195° South 500 575 38,000  Level FlightAware ADS-B
Tue 04:32:17 PM 41.1410 -82.1970 182° South 509 586 38,000  Level FlightAware ADS-B
Tue 04:33:00 PM 41.0380 -82.1950 179° South 509 586 38,000  Level FlightAware ADS-B
Tue 04:33:41 PM 40.9400 -82.1930 179° South 512 589 38,000  Level FlightAware ADS-B
Tue 04:34:20 PM 40.8480 -82.1920 180° South 513 590 38,000  Level FlightAware ADS-B
Tue 04:34:58 PM 40.7580 -82.1910 180° South 515 593 38,000  Level FlightAware ADS-B
Tue 04:35:40 PM 40.6580 -82.1890 179° South 512 589 38,000  Level FlightAware ADS-B
Tue 04:36:06 PM 40.5970 -82.1760 171° South 513 590 38,000  Level FlightAware ADS-B
Tue 04:36:50 PM 40.4970 -82.1450 167° South 516 594 38,000  Level FlightAware ADS-B
Tue 04:37:35 PM 40.3930 -82.1120 166° South 516 594 38,000  Level FlightAware ADS-B
Tue 04:38:10 PM 40.3090 -82.0890 168° South 515 593 38,000  Level FlightAware ADS-B
Tue 04:38:56 PM 40.2020 -82.0570 167° South 517 595 38,000  Level FlightAware ADS-B
Tue 04:39:34 PM 40.1130 -82.0260 165° South 509 586 38,000  Level FlightAware ADS-B
Tue 04:40:11 PM 40.0310 -81.9960 164° South 498 573 38,000  Level FlightAware ADS-B
Tue 04:40:57 PM 39.9300 -81.9550 163° South 504 580 38,000  Level FlightAware ADS-B
Tue 04:41:33 PM 39.8480 -81.9210 162° South 514 592 38,000  Level FlightAware ADS-B
Tue 04:42:12 PM 39.7620 -81.8850 162° South 510 587 38,000  Level FlightAware ADS-B
Tue 04:42:56 PM 39.6620 -81.8450 163° South 507 583 38,000  Level FlightAware ADS-B
Tue 04:43:38 PM 39.5670 -81.8080 163° South 510 587 38,000  Level FlightAware ADS-B
Tue 04:44:20 PM 39.4720 -81.7770 166° South 516 594 38,000  Level FlightAware ADS-B
Tue 04:45:00 PM 39.3780 -81.7480 167° South 516 594 38,000  Level FlightAware ADS-B
Tue 04:45:56 PM 39.2500 -81.7430 178° South 499 574 38,000  Level FlightAware ADS-B
Tue 04:46:38 PM 39.1620 -81.7960 205° Southwest 494 568 38,000  Level FlightAware ADS-B
Tue 04:47:15 PM 39.0870 -81.8470 208° Southwest 500 575 38,000  Level FlightAware ADS-B
Tue 04:48:04 PM 38.9890 -81.9130 208° Southwest 497 572 38,000  Level FlightAware ADS-B
Tue 04:48:42 PM 38.9110 -81.9660 208° Southwest 495 570 38,000  Level FlightAware ADS-B
Tue 04:49:26 PM 38.8210 -82.0270 208° Southwest 494 568 38,000  Level FlightAware ADS-B
Tue 04:50:10 PM 38.7320 -82.0870 208° Southwest 495 570 38,000  Level FlightAware ADS-B
Tue 04:51:06 PM 38.6200 -82.1630 208° Southwest 499 574 38,000  Level FlightAware ADS-B
Tue 04:52:03 PM 38.4990 -82.2430 207° Southwest 500 575 38,000  Level FlightAware ADS-B
Tue 04:52:43 PM 38.4180 -82.2970 208° Southwest 500 575 38,000  Level FlightAware ADS-B
Tue 04:53:21 PM 38.3399 -82.3480 207° Southwest 501 577 38,000  Level FlightAware ADS-B
Tue 04:54:01 PM 38.2570 -82.4020 207° Southwest 501 577 38,000  Level FlightAware ADS-B
Tue 04:54:08 PM 38.2419 -82.4125 209° Southwest 502 578 38,000  Level FlightAware ADS-B
Tue 04:54:41 PM 38.1750 -82.4560 207° Southwest 500 575 38,000  Level FlightAware ADS-B
Tue 04:55:04 PM 38.1294 -82.4863 208° Southwest 501 577 38,000  Level FlightAware ADS-B
Tue 04:55:59 PM 38.0150 -82.5610 207° Southwest 503 579 38,000  Level FlightAware ADS-B
Tue 04:56:12 PM 37.9864 -82.5797 207° Southwest 503 579 38,000  Level FlightAware ADS-B
Tue 04:56:48 PM 37.9117 -82.6283 207° Southwest 504 580 38,000  Level FlightAware ADS-B
Tue 04:57:22 PM 37.8416 -82.6739 207° Southwest 505 581 38,000  Level FlightAware ADS-B
Tue 04:58:03 PM 37.7580 -82.7280 207° Southwest 504 580 38,000  Level FlightAware ADS-B
Tue 04:58:44 PM 37.6720 -82.7830 207° Southwest 503 579 38,000  Level FlightAware ADS-B
Tue 04:59:27 PM 37.5850 -82.8400 207° Southwest 503 579 38,000  Level FlightAware ADS-B
Tue 05:00:09 PM 37.4970 -82.8960 207° Southwest 503 579 38,000  Level FlightAware ADS-B
Tue 05:00:59 PM 37.3926 -82.9632 207° Southwest 502 578 38,000  Level FlightAware ADS-B
Tue 05:01:30 PM 37.3273 -83.0050 207° Southwest 501 577 38,000  Level FlightAware ADS-B
Tue 05:02:03 PM 37.2590 -83.0486 207° Southwest 502 578 38,000  Level FlightAware ADS-B
Tue 05:02:46 PM 37.1712 -83.1046 207° Southwest 503 579 38,000  Level FlightAware ADS-B
Tue 05:03:18 PM 37.1054 -83.1463 207° Southwest 503 579 38,000  Level FlightAware ADS-B
Tue 05:03:50 PM 37.0382 -83.1890 207° Southwest 503 579 38,000  Level FlightAware ADS-B
Tue 05:04:24 PM 36.9666 -83.2343 207° Southwest 502 578 38,000  Level FlightAware ADS-B
Tue 05:04:55 PM 36.9040 -83.2738 207° Southwest 501 577 38,000  Level FlightAware ADS-B
Tue 05:05:26 PM 36.8392 -83.3146 207° Southwest 500 575 38,000  Level FlightAware ADS-B
Tue 05:05:57 PM 36.7754 -83.3548 207° Southwest 499 574 38,000  Level FlightAware ADS-B
Tue 05:06:28 PM 36.7129 -83.3940 207° Southwest 500 575 38,000  Level FlightAware ADS-B
Tue 05:06:58 PM 36.6508 -83.4329 207° Southwest 500 575 38,000  Level FlightAware ADS-B
Tue 05:07:28 PM 36.5883 -83.4720 207° Southwest 500 575 38,000  Level FlightAware ADS-B
Tue 05:07:59 PM 36.5244 -83.5119 207° Southwest 500 575 38,000  Level FlightAware ADS-B
Tue 05:08:31 PM 36.4571 -83.5539 207° Southwest 499 574 38,000  Level FlightAware ADS-B
Tue 05:09:02 PM 36.3942 -83.5930 207° Southwest 499 574 38,000  Level FlightAware ADS-B
Tue 05:09:32 PM 36.3315 -83.6319 207° Southwest 496 571 38,000  Level FlightAware ADS-B
Tue 05:10:03 PM 36.2690 -83.6706 207° Southwest 494 568 38,000  Level FlightAware ADS-B
Tue 05:10:34 PM 36.2064 -83.7095 207° Southwest 494 568 38,000  Level FlightAware ADS-B
Tue 05:11:04 PM 36.1436 -83.7482 206° Southwest 492 566 38,000  Level FlightAware ADS-B
Tue 05:11:35 PM 36.0821 -83.7861 206° Southwest 491 565 38,000  Level FlightAware ADS-B
Tue 05:12:05 PM 36.0202 -83.8241 206° Southwest 490 564 38,000  Level FlightAware ADS-B
Tue 05:12:35 PM 35.9595 -83.8607 206° Southwest 490 564 38,000  Level FlightAware ADS-B
Tue 05:12:55 PM 35.9180 -83.8804 201° Southwest 490 564 38,000  Level FlightAware ADS-B
Tue 05:13:24 PM 35.8546 -83.9034 196° South 488 562 38,000  Level FlightAware ADS-B
Tue 05:13:54 PM 35.7873 -83.9207 192° South 487 560 38,000  Level FlightAware ADS-B
Tue 05:14:29 PM 35.7108 -83.9410 192° South 485 558 38,000  Level FlightAware ADS-B
Tue 05:14:59 PM 35.6450 -83.9580 192° South 484 557 38,000  Level FlightAware ADS-B
Tue 05:15:40 PM 35.5559 -83.9798 191° South 483 556 38,000  Level FlightAware ADS-B
Tue 05:16:11 PM 35.4882 -83.9961 191° South 482 555 38,000  Level FlightAware ADS-B
Tue 05:16:46 PM 35.4123 -84.0144 191° South 479 551 38,000  Level FlightAware ADS-B
Tue 05:17:17 PM 35.3446 -84.0307 191° South 478 550 38,000  Level FlightAware ADS-B
Tue 05:17:49 PM 35.2746 -84.0476 191° South 479 551 38,000  Level FlightAware ADS-B
Tue 05:18:19 PM 35.2087 -84.0634 191° South 480 552 38,000  Level FlightAware ADS-B
Tue 05:19:23 PM 35.0700 -84.0966 191° South 479 551 38,000  Level FlightAware ADS-B
Tue 05:19:53 PM 35.0050 -84.1121 191° South 476 548 38,000  Level FlightAware ADS-B
Tue 05:20:45 PM 34.8922 -84.1391 191° South 476 548 38,000  Level FlightAware ADS-B
Tue 05:21:11 PM 34.8359 -84.1544 193° South 476 548 38,000  Level FlightAware ADS-B
Tue 05:21:20 PM 34.8185 -84.1628 202° Southwest 476 548 38,000  Level FlightAware ADS-B
Tue 05:21:25 PM 34.8092 -84.1684 206° Southwest 477 549 38,000  Level FlightAware ADS-B
Tue 05:21:57 PM 34.7484 -84.2119 210° Southwest 476 548 38,000  Level FlightAware ADS-B
Tue 05:22:27 PM 34.6912 -84.2551 212° Southwest 478 550 38,000  Level FlightAware ADS-B
Tue 05:22:58 PM 34.6345 -84.2995 213° Southwest 479 551 38,000  Level FlightAware ADS-B
Tue 05:23:29 PM 34.5753 -84.3457 213° Southwest 480 552 38,000  Level FlightAware ADS-B
Tue 05:24:00 PM 34.5188 -84.3905 213° Southwest 478 550 38,000  Level FlightAware ADS-B
Tue 05:24:30 PM 34.4635 -84.4356 214° Southwest 479 551 38,000  Level FlightAware ADS-B
Tue 05:25:01 PM 34.4075 -84.4814 214° Southwest 481 554 38,000  Level FlightAware ADS-B
Tue 05:25:31 PM 34.3503 -84.5244 212° Southwest 479 551 38,000  Level FlightAware ADS-B
Tue 05:26:20 PM 34.2560 -84.5850 208° Southwest 478 550 38,000  Level FlightAware ADS-B
Tue 05:26:32 PM 34.2308 -84.6003 207° Southwest 479 551 38,000  Level FlightAware ADS-B
Tue 05:27:02 PM 34.1702 -84.6344 205° Southwest 478 550 38,000  Level FlightAware ADS-B
Tue 05:27:40 PM 34.0900 -84.6570 193° South 471 542 38,000  Level FlightAware ADS-B
Tue 05:28:32 PM 33.9820 -84.6470 176° South 464 534 38,000 186 Level FlightAware ADS-B
Tue 05:29:17 PM 33.8800 -84.6390 176° South 469 540 38,300 527 Climbing FlightAware ADS-B
Tue 05:30:03 PM 33.7784 -84.6303 176° South 475 547 38,800 545 Climbing FlightAware ADS-B
Tue 05:30:34 PM 33.7104 -84.6245 176° South 474 545 39,000 197 Climbing FlightAware ADS-B
Tue 05:31:04 PM 33.6445 -84.6189 176° South 473 544 39,000  Level FlightAware ADS-B
Tue 05:31:34 PM 33.5775 -84.6132 176° South 474 545 39,000  Level FlightAware ADS-B
Tue 05:32:05 PM 33.5107 -84.6078 176° South 475 547 39,000  Level FlightAware ADS-B
Tue 05:32:38 PM 33.4387 -84.6020 176° South 474 545 39,000  Level FlightAware ADS-B
Tue 05:33:11 PM 33.3669 -84.5962 176° South 473 544 39,000  Level FlightAware ADS-B
Tue 05:33:44 PM 33.2940 -84.5902 176° South 471 542 39,000  Level FlightAware ADS-B
Tue 05:34:14 PM 33.2290 -84.5850 176° South 470 541 39,000  Level FlightAware ADS-B
Tue 05:34:38 PM 33.1760 -84.5806 176° South 469 540 39,000  Level FlightAware ADS-B
Tue 05:35:33 PM 33.0610 -84.5710 176° South 470 541 39,000  Level FlightAware ADS-B
Tue 05:36:17 PM 32.9614 -84.5632 176° South 472 543 39,000  Level FlightAware ADS-B
Tue 05:36:54 PM 32.8830 -84.5570 176° South 474 545 39,000  Level FlightAware ADS-B
Tue 05:37:33 PM 32.7990 -84.5500 176° South 477 549 39,000  Level FlightAware ADS-B
Tue 05:38:12 PM 32.7110 -84.5430 176° South 478 550 39,000  Level FlightAware ADS-B
Tue 05:38:52 PM 32.6240 -84.5360 176° South 477 549 39,000  Level FlightAware ADS-B
Tue 05:39:33 PM 32.5370 -84.5290 176° South 477 549 39,000  Level FlightAware ADS-B
Tue 05:40:14 PM 32.4420 -84.5210 176° South 478 550 39,000  Level FlightAware ADS-B
Tue 05:40:56 PM 32.3490 -84.5140 176° South 481 554 39,000  Level FlightAware ADS-B
Tue 05:41:38 PM 32.2570 -84.5070 176° South 483 556 39,000  Level FlightAware ADS-B
Tue 05:42:19 PM 32.1670 -84.5000 176° South 483 556 39,000  Level FlightAware ADS-B
Tue 05:43:02 PM 32.0680 -84.4920 176° South 481 554 39,000  Level FlightAware ADS-B
Tue 05:43:42 PM 31.9800 -84.4850 176° South 479 551 39,000  Level FlightAware ADS-B
Tue 05:44:23 PM 31.8910 -84.4780 176° South 479 551 39,000  Level FlightAware ADS-B
Tue 05:44:56 PM 31.8270 -84.4720 175° South 479 551 39,000  Level FlightAware ADS-B
Tue 05:46:06 PM 31.6950 -84.4620 176° South 479 551 39,000  Level FlightAware ADS-B
Tue 05:46:42 PM 31.6280 -84.4560 176° South 479 551 39,000  Level FlightAware ADS-B
Tue 05:47:44 PM 31.5110 -84.4470 176° South 479 551 39,000  Level FlightAware ADS-B
Tue 05:48:19 PM 31.4450 -84.4410 176° South 479 551 39,000  Level FlightAware ADS-B
Tue 05:48:55 PM 31.3780 -84.4360 176° South 479 551 39,000  Level FlightAware ADS-B
Tue 05:50:04 PM 31.1540 -84.4200 177° South 469 540 39,000  Level FlightAware ADS-B
Tue 05:50:48 PM 31.0510 -84.4120 176° South 468 539 39,000  Level FlightAware ADS-B
Tue 05:51:32 PM 30.9670 -84.4050 176° South 468 539 39,000  Level FlightAware ADS-B
Tue 05:52:32 PM 30.8570 -84.3960 176° South 468 539 39,000  Level FlightAware ADS-B
Tue 05:53:09 PM 30.7490 -84.3890 177° South 466 536 39,000  Level FlightAware ADS-B
Tue 05:54:04 PM 30.6350 -84.3770 175° South 466 536 39,000  Level FlightAware ADS-B
Tue 05:54:48 PM 30.5470 -84.3540 167° South 466 536 39,000  Level FlightAware ADS-B
Tue 05:56:02 PM 30.4000 -84.2720 154° Southeast 463 533 39,000  Level FlightAware ADS-B
Tue 05:56:40 PM 30.3220 -84.2200 150° Southeast 463 533 39,000  Level FlightAware ADS-B
Tue 05:57:20 PM 30.2480 -84.1720 151° Southeast 462 532 39,000  Level FlightAware ADS-B
Tue 05:58:06 PM 30.1660 -84.1180 150° Southeast 463 533 39,000  Level FlightAware ADS-B
Tue 05:58:59 PM 30.0670 -84.0540 151° Southeast 463 533 39,000  Level FlightAware ADS-B
Tue 05:59:44 PM 29.9810 -83.9980 151° Southeast 465 535 39,000  Level FlightAware ADS-B
Tue 05:59:54 PM 29.9650 -83.9880 152° Southeast 465 535 39,000  Level FlightAware ADS-B
Tue 06:00:54 PM 29.8490 -83.9130 151° Southeast 460 529 39,000  Level FlightAware ADS-B
Tue 06:01:44 PM 29.7540 -83.8510 150° Southeast 460 529 39,000  Level FlightAware ADS-B
Tue 06:02:19 PM 29.6890 -83.8100 151° Southeast 460 529 39,000  Level FlightAware ADS-B
Tue 06:02:59 PM 29.6120 -83.7600 151° Southeast 463 533 39,000  Level FlightAware ADS-B
Tue 06:03:39 PM 29.5380 -83.7130 151° Southeast 462 532 39,000  Level FlightAware ADS-B
Tue 06:04:19 PM 29.4610 -83.6630 151° Southeast 462 532 39,000  Level FlightAware ADS-B
Tue 06:04:59 PM 29.3850 -83.6150 151° Southeast 463 533 39,000  Level FlightAware ADS-B
Tue 06:05:39 PM 29.3100 -83.5660 150° Southeast 464 534 39,000  Level FlightAware ADS-B
Tue 06:06:19 PM 29.2330 -83.5170 151° Southeast 465 535 39,000  Level FlightAware ADS-B
Tue 06:07:04 PM 29.1470 -83.4620 151° Southeast 465 535 39,000  Level FlightAware ADS-B
Tue 06:07:44 PM 29.0710 -83.4140 151° Southeast 464 534 39,000  Level FlightAware ADS-B
Tue 06:08:29 PM 28.9850 -83.3590 151° Southeast 462 532 39,000  Level FlightAware ADS-B
Tue 06:08:59 PM 28.9280 -83.3230 151° Southeast 461 531 39,000  Level FlightAware ADS-B
Tue 06:09:34 PM 28.8620 -83.2820 151° Southeast 459 528 39,000  Level FlightAware ADS-B
Tue 06:10:14 PM 28.7870 -83.2340 151° Southeast 463 533 39,000  Level FlightAware ADS-B
Tue 06:10:54 PM 28.7120 -83.1870 151° Southeast 461 531 39,000  Level FlightAware ADS-B
Tue 06:11:52 PM 28.6360 -83.1390 151° Southeast 457 526 39,000  Level FlightAware ADS-B
Tue 06:12:44 PM 28.5080 -83.0580 151° Southeast 457 526 39,000  Level FlightAware ADS-B
Tue 06:13:29 PM 28.4250 -83.0070 152° Southeast 456 525 39,000  Level FlightAware ADS-B
Tue 06:14:19 PM 28.3330 -82.9490 151° Southeast 458 527 39,000  Level FlightAware ADS-B
Tue 06:14:54 PM 28.2670 -82.9080 151° Southeast 461 531 39,000  Level FlightAware ADS-B
Tue 06:15:44 PM 28.1970 -82.8640 151° Southeast 463 533 39,000  Level FlightAware ADS-B
Tue 06:17:50 PM 27.9870 -82.7320 151° Southeast 461 531 39,000  Level FlightAware ADS-B
Tue 06:18:54 PM 27.8160 -82.6240 151° Southeast 456 525 39,000  Level FlightAware ADS-B
Tue 06:19:35 PM 27.7430 -82.5740 149° Southeast 454 522 39,000  Level FlightAware ADS-B
Tue 06:20:13 PM 27.6730 -82.5270 149° Southeast 453 521 39,000  Level FlightAware ADS-B
Tue 06:20:54 PM 27.5990 -82.4780 150° Southeast 448 516 39,000  Level FlightAware ADS-B
Tue 06:21:38 PM 27.5180 -82.4250 150° Southeast 451 519 39,000  Level FlightAware ADS-B
Tue 06:22:19 PM 27.4450 -82.3760 149° Southeast 452 520 39,000  Level FlightAware ADS-B
Tue 06:23:04 PM 27.3640 -82.3230 150° Southeast 452 520 39,000  Level FlightAware ADS-B
Tue 06:23:49 PM 27.2910 -82.2740 149° Southeast 451 519 39,000  Level FlightAware ADS-B
Tue 06:24:23 PM 27.2240 -82.2300 150° Southeast 451 519 39,000  Level FlightAware ADS-B
Tue 06:25:08 PM 27.1400 -82.1750 150° Southeast 450 518 39,000  Level FlightAware ADS-B
Tue 06:25:53 PM 27.0590 -82.1220 150° Southeast 450 518 39,000  Level FlightAware ADS-B
Tue 06:26:28 PM 26.9970 -82.0810 149° Southeast 451 519 39,000  Level FlightAware ADS-B
Tue 06:27:18 PM 26.9010 -82.0390 159° South 451 519 39,000  Level FlightAware ADS-B
Tue 06:27:54 PM 26.8220 -82.0480 186° South 454 522 39,000  Level FlightAware ADS-B
Tue 06:28:40 PM 26.7260 -82.0640 188° South 456 525 39,000  Level FlightAware ADS-B
Tue 06:29:24 PM 26.6300 -82.0800 188° South 458 527 39,000  Level FlightAware ADS-B
Tue 06:30:04 PM 26.5460 -82.0950 189° South 459 528 39,000  Level FlightAware ADS-B
Tue 06:30:44 PM 26.4590 -82.1090 188° South 458 527 39,000  Level FlightAware ADS-B
Tue 06:31:25 PM 26.3730 -82.1240 189° South 457 526 39,000  Level FlightAware ADS-B
Tue 06:32:10 PM 26.2750 -82.1410 189° South 456 525 39,000  Level FlightAware ADS-B
Tue 06:32:45 PM 26.2010 -82.1530 188° South 457 526 39,000  Level FlightAware ADS-B
Tue 06:33:26 PM 26.1160 -82.1670 188° South 458 527 39,000  Level FlightAware ADS-B
Tue 06:34:10 PM 26.0200 -82.1840 189° South 457 526 39,000  Level FlightAware ADS-B
Tue 06:34:45 PM 25.9460 -82.1960 188° South 458 527 39,000  Level FlightAware ADS-B
Tue 06:35:30 PM 25.8490 -82.2130 189° South 468 539 39,000  Level FlightAware ADS-B
Tue 06:36:10 PM 25.7700 -82.2260 188° South 468 539 39,000  Level FlightAware ADS-B
Tue 06:37:00 PM 25.6570 -82.2450 189° South 455 524 39,000  Level FlightAware ADS-B
Tue 06:37:56 PM 25.5420 -82.2640 188° South 442 509 39,000  Level FlightAware ADS-B
Tue 06:38:42 PM 25.4470 -82.2800 189° South 441 507 39,000  Level FlightAware ADS-B
Tue 06:39:47 PM 25.3130 -82.3020 188° South 457 526 39,000  Level FlightAware ADS-B
Tue 06:40:41 PM 25.1960 -82.3220 189° South 456 525 39,000 -661 Level FlightAware ADS-B
Tue 06:41:45 PM 25.0580 -82.3450 189° South 471 542 37,700 -1,684 Descending FlightAware ADS-B
Tue 06:42:37 PM 24.9480 -82.3630 188° South 36,000 -1,963 Descending FlightAware ADS-B
Tue 06:43:32 PM 24.8240 -82.3840 189° South 469 540 34,200 -1,436 Descending FlightAware ADS-B
Tue 06:44:34 PM 24.7070 -82.4020 188° South 456 525 33,200 -1,200 Descending FlightAware ADS-B
Tue 06:45:47 PM 24.5650 -82.4250 188° South 456 525 31,500 -936 Descending FlightAware ADS-B
Tue 06:46:23 PM 24.5010 -82.4350 188° South 456 525 31,500 -2,589 Level FlightAware ADS-B
Tue 06:47:22 PM 24.3540 -82.4610 189° South 435 501 27,400 -3,115 Descending FlightAware ADS-B
Tue 06:48:07 PM 24.2640 -82.4760 189° South 435 501 26,100 -929 Descending FlightAware ADS-B
Tue 06:48:46 PM 24.1980 -82.4860 188° South 435 501 26,100  Level FlightAware ADS-B
Tue 06:49:21 PM 24.1390 -82.4950 188° South 435 501 26,100  Level FlightAware ADS-B
Tue 06:50:08 PM 24.0590 -82.5070 188° South 435 501 26,100  Level FlightAware ADS-B
Tue 06:50:44 PM 23.9980 -82.5170 189° South 435 501 26,100  Level FlightAware ADS-B
Tue 06:51:20 PM 23.9370 -82.5260 188° South 435 501 26,100  Level FlightAware ADS-B
Tue 06:57:00 PM 23.2257 -82.4176 175° South  Level FlightAware Approximate
Tue 06:58:00 PM 23.0996 -82.4099 170° South  Level FlightAware Approximate
Tue 06:59:00 PM 22.9891 -82.4091 180° South  Level Estimated
Tue 07:00:00 PM 22.9891 -82.4091 180° South  Level Estimated
Tue 07:01:00 PM 22.9891 -82.4091 180° South  Level Estimated
Tue 07:02:00 PM 22.9891 -82.4091 180° South  Level Estimated
Tue 07:03:00 PM 22.9891 -82.4091 180° South  Level Estimated
Tue 07:04:00 PM 22.9891 -82.4091 180° South  Level Estimated
Tue 07:05:00 PM 22.9891 -82.4091 180° South  Level Estimated
Tue 07:06:00 PM 22.9891 -82.4091 180° South  Level Estimated
Tue 07:07:00 PM 22.9891 -82.4091 180° South  Level Estimated
Tue 07:08:00 PM 22.9891 -82.4091 180° South  Level Estimated
Tue 07:09:00 PM 22.9891 -82.4091 180° South  Level Estimated
Tue 07:10:00 PM 22.9891 -82.4091 180° South  Level Estimated
Tue 07:11:00 PM 22.9891 -82.4091 180° South  Level Estimated
Tue 07:12:00 PM 22.9891 -82.4091 180° South  Level Estimated
Tue 07:13:00 PM 22.9891 -82.4091 180° South  Level Estimated
Tue 07:14:00 PM 22.9891 -82.4091 180° South  Level Estimated
Tue 07:15:00 PM 22.9891 -82.4091 180° South  Level Estimated
Tue 07:16:00 PM 22.9891 -82.4091 180° South  Level Estimated
Tue 07:17:00 PM 22.9891 -82.4091 180° South  Level Estimated
Tue 07:18:00 PM 22.9891 -82.4091 180° South  Level Estimated
Tue 07:19:00 PM 22.9891 -82.4091 180° South  Level Estimated
Tue 07:20:00 PM 22.9891 -82.4091 180° South  Level Estimated
Tue 07:21:00 PM 22.9891 -82.4091 180° South  Level Estimated
Tue 07:22:00 PM 22.9891 -82.4091 180° South  Level Estimated
Tue 07:23:00 PM 22.9891 -82.4091 180° South  Level Estimated
Tue 07:24:00 PM 22.9891 -82.4091 180° South  Level Estimated
Tue 07:25:00 PM 22.9891 -82.4091 180° South  Level Estimated
Tue 07:26:00 PM 22.9891 -82.4091 180° South  Level Estimated
Tue 07:27:00 PM 22.9891 -82.4091 180° South  Level Estimated
Tue 07:28:00 PM 22.9891 -82.4091 180° South  Level Estimated
Tue 07:29:00 PM 22.9891 -82.4091 180° South  Level Estimated

Login

Don't have an account? Register now (free) for customized features, flight alerts, and more!